Time;durP1;ratioP1;P1;durP2;ratioP2;P2;SDS_P1;SDS_P2;PMS_P1;PMS_P2;Temp;Humidity;BMP_temperature;BMP_pressure;BME280_temperature;BME280_humidity;BME280_pressure;Samples;Min_cycle;Max_cycle;Signal;HPM_P1;HPM_P2
2023/06/03 00:01:34;;;;;;;;;;;;;;;23.62;50.23;100853.28;5017553;28;20489;-85
2023/06/03 00:04:00;;;;;;;;;;;;;;;23.59;50.35;100859.16;5014287;28;20503;-85
2023/06/03 00:06:28;;;;;;;;;;;;;;;23.58;50.20;100854.75;5001449;28;20232;-85
2023/06/03 00:08:57;;;;;;;;;;;;;;;23.70;49.73;100862.22;5014774;28;20132;-85
2023/06/03 00:11:25;;;;;;;;;;;;;;;23.58;49.73;100868.31;5002502;28;20141;-85
2023/06/03 00:13:52;;;;;;;;;;;;;;;23.51;50.28;100869.38;4982687;28;20075;-84
2023/06/03 00:16:20;;;;;;;;;;;;;;;23.18;50.21;100818.88;4972324;28;20294;-85
2023/06/03 00:18:46;;;;;;;;;;;;;;;23.39;50.33;100877.34;5003101;28;20156;-84
2023/06/03 00:21:16;;;;;;;;;;;;;;;23.33;50.86;100867.38;4994355;28;20281;-85
2023/06/03 00:23:45;;;;;;;;;;;;;;;23.24;50.96;100872.19;4963691;28;20393;-85
2023/06/03 00:26:12;;;;;;;;;;;;;;;23.30;50.61;100865.09;4997394;28;19952;-85
2023/06/03 00:28:39;;;;;;;;;;;;;;;23.22;51.12;100872.41;4986846;28;20679;-85
2023/06/03 00:31:06;;;;;;;;;;;;;;;23.18;51.31;100876.59;4994882;28;20537;-85
2023/06/03 00:33:33;;;;;;;;;;;;;;;23.08;52.17;100881.59;5012470;28;19925;-84
2023/06/03 00:36:01;;;;;;;;;;;;;;;23.21;50.92;100878.88;4986313;28;20437;-85
2023/06/03 00:38:30;;;;;;;;;;;;;;;23.26;50.36;100878.25;4970201;28;20237;-85
2023/06/03 00:41:00;;;;;;;;;;;;;;;23.23;50.56;100884.09;4959179;28;19956;-85
2023/06/03 00:43:34;;;;;;;;;;;;;;;22.79;51.40;100844.97;4968648;28;19925;-84
2023/06/03 00:46:11;;;;;;;;;;;;;;;23.06;50.98;100899.97;4964512;28;19936;-86
2023/06/03 00:48:41;;;;;;;;;;;;;;;22.91;50.64;100869.53;4982556;28;20012;-85
2023/06/03 00:51:10;;;;;;;;;;;;;;;23.01;50.82;100897.03;5004962;28;20381;-84
2023/06/03 00:53:39;;;;;;;;;;;;;;;22.63;51.19;100846.28;5012479;28;20327;-84
2023/06/03 00:56:09;;;;;;;;;;;;;;;22.95;51.50;100897.84;5016582;28;20185;-85
2023/06/03 00:58:38;;;;;;;;;;;;;;;22.94;51.36;100905.16;5012791;28;20085;-85
2023/06/03 01:01:08;;;;;;;;;;;;;;;22.90;51.33;100906.59;5008647;28;19968;-85
2023/06/03 01:03:43;;;;;;;;;;;;;;;22.64;51.25;100853.34;4986182;28;20020;-85
2023/06/03 01:06:34;;;;;;;;;;;;;;;22.50;50.92;100835.44;5007393;28;19933;-84
2023/06/03 01:09:20;;;;;;;;;;;;;;;22.89;51.27;100906.81;4997160;28;19983;-85
2023/06/03 01:11:57;;;;;;;;;;;;;;;22.81;51.96;100905.97;4998677;28;20418;-84
2023/06/03 01:14:43;;;;;;;;;;;;;;;22.82;51.81;100904.97;5015297;28;19931;-85
2023/06/03 01:17:12;;;;;;;;;;;;;;;22.80;51.91;100900.78;5004749;28;20026;-85
2023/06/03 01:19:50;;;;;;;;;;;;;;;22.74;51.88;100902.44;4998251;28;20320;-83
2023/06/03 01:22:17;;;;;;;;;;;;;;;22.78;52.22;100902.88;5014353;28;20040;-85
2023/06/03 01:24:45;;;;;;;;;;;;;;;22.75;51.95;100909.53;5005535;28;19925;-84
2023/06/03 01:27:13;;;;;;;;;;;;;;;22.83;52.45;100901.19;5002643;28;19932;-84
2023/06/03 01:29:42;;;;;;;;;;;;;;;22.78;52.46;100908.28;5020717;28;20235;-84
2023/06/03 01:32:12;;;;;;;;;;;;;;;22.69;53.08;100902.25;5021205;28;20332;-84
2023/06/03 01:34:40;;;;;;;;;;;;;;;22.64;52.80;100904.75;5013162;28;20129;-84
2023/06/03 01:37:07;;;;;;;;;;;;;;;22.65;52.43;100908.28;5011287;28;20437;-85
2023/06/03 01:39:39;;;;;;;;;;;;;;;22.66;51.97;100921.63;5013538;28;20351;-84
2023/06/03 01:42:07;;;;;;;;;;;;;;;22.72;51.05;100919.94;5025729;28;19929;-85
2023/06/03 01:44:34;;;;;;;;;;;;;;;22.63;51.39;100911.22;5015112;28;20255;-85
2023/06/03 01:47:06;;;;;;;;;;;;;;;22.59;51.85;100907.25;5024769;28;19978;-84
2023/06/03 01:49:33;;;;;;;;;;;;;;;22.54;52.05;100924.09;4996826;28;19924;-84
2023/06/03 01:52:01;;;;;;;;;;;;;;;22.51;51.91;100924.53;5007412;28;19932;-84
2023/06/03 01:54:28;;;;;;;;;;;;;;;22.50;51.85;100928.28;4993933;28;20008;-85
2023/06/03 01:56:56;;;;;;;;;;;;;;;22.51;51.45;100929.13;5013236;28;19924;-84
2023/06/03 01:59:24;;;;;;;;;;;;;;;22.50;51.68;100932.84;5019900;28;19925;-84
2023/06/03 02:01:55;;;;;;;;;;;;;;;22.47;52.05;100933.25;4981189;28;20289;-85
2023/06/03 02:04:26;;;;;;;;;;;;;;;22.47;51.55;100930.56;5015117;28;19924;-84
2023/06/03 02:06:55;;;;;;;;;;;;;;;22.44;51.77;100939.09;5026722;28;19931;-84
2023/06/03 02:09:24;;;;;;;;;;;;;;;22.48;51.48;100943.88;5020068;28;20479;-84
2023/06/03 02:11:52;;;;;;;;;;;;;;;22.49;51.52;100940.13;5022492;28;19924;-85
2023/06/03 02:14:19;;;;;;;;;;;;;;;22.37;51.81;100948.00;5021917;28;20274;-84
2023/06/03 02:16:46;;;;;;;;;;;;;;;22.39;51.77;100953.22;5027803;28;19951;-85
2023/06/03 02:19:17;;;;;;;;;;;;;;;22.31;52.09;100950.72;5016865;28;19960;-84
2023/06/03 02:21:44;;;;;;;;;;;;;;;22.31;52.04;100954.25;5019445;28;19956;-84
2023/06/03 02:24:14;;;;;;;;;;;;;;;22.29;51.99;100950.94;5020418;28;19952;-84
2023/06/03 02:26:49;;;;;;;;;;;;;;;22.29;51.98;100960.91;5020967;28;20469;-84
2023/06/03 02:29:20;;;;;;;;;;;;;;;22.26;52.09;100964.88;5022324;28;20223;-85
2023/06/03 02:31:49;;;;;;;;;;;;;;;21.97;51.59;100923.56;5022219;28;20289;-83
2023/06/03 02:34:17;;;;;;;;;;;;;;;22.21;51.78;100967.34;5020847;28;19928;-85
2023/06/03 02:36:44;;;;;;;;;;;;;;;22.21;51.86;100964.66;5010982;28;20412;-84
2023/06/03 02:39:11;;;;;;;;;;;;;;;22.25;51.92;100971.28;5025518;28;20158;-84
2023/06/03 02:41:39;;;;;;;;;;;;;;;22.15;52.43;100977.06;5019971;28;19932;-84
2023/06/03 02:44:10;;;;;;;;;;;;;;;21.94;52.97;100980.75;5024538;28;20168;-84
2023/06/03 02:46:40;;;;;;;;;;;;;;;21.92;53.49;100980.13;5020044;28;20015;-84
2023/06/03 02:49:09;;;;;;;;;;;;;;;21.88;53.97;100989.66;5025994;28;19925;-84
2023/06/03 02:51:41;;;;;;;;;;;;;;;21.45;54.72;100933.13;5009464;28;19928;-83
2023/06/03 02:54:08;;;;;;;;;;;;;;;21.80;54.51;100981.72;5009229;28;19936;-85
2023/06/03 02:56:35;;;;;;;;;;;;;;;21.67;55.39;100982.47;4996130;28;20107;-84
2023/06/03 02:59:05;;;;;;;;;;;;;;;21.29;56.19;100936.16;4998922;28;19935;-83
2023/06/03 03:01:33;;;;;;;;;;;;;;;21.57;55.86;100982.00;5025564;28;19925;-84
2023/06/03 03:04:00;;;;;;;;;;;;;;;21.57;55.95;100983.88;5021102;28;19925;-84
2023/06/03 03:06:29;;;;;;;;;;;;;;;21.30;56.40;100945.91;5003021;28;20133;-84
2023/06/03 03:09:04;;;;;;;;;;;;;;;21.02;56.00;100919.78;5022286;28;19924;-84
2023/06/03 03:11:39;;;;;;;;;;;;;;;21.21;56.60;100949.78;5005840;28;20295;-84
2023/06/03 03:14:11;;;;;;;;;;;;;;;21.48;56.54;101005.69;5012605;28;19929;-85
2023/06/03 03:16:41;;;;;;;;;;;;;;;21.25;56.29;100951.06;4982252;28;19925;-83
2023/06/03 03:19:14;;;;;;;;;;;;;;;21.45;56.61;101011.44;5014487;28;19925;-84
2023/06/03 03:21:41;;;;;;;;;;;;;;;21.35;56.95;101013.63;4996638;28;19940;-84
2023/06/03 03:24:10;;;;;;;;;;;;;;;21.48;56.66;101024.59;5015033;28;19986;-85
2023/06/03 03:26:41;;;;;;;;;;;;;;;21.21;56.95;100992.97;5013715;28;20147;-84
2023/06/03 03:29:08;;;;;;;;;;;;;;;21.45;56.97;101024.94;4995820;28;19947;-85
2023/06/03 03:31:35;;;;;;;;;;;;;;;21.35;57.33;101021.75;5019767;28;20098;-84
2023/06/03 03:34:02;;;;;;;;;;;;;;;21.34;57.40;101023.63;5006112;28;19928;-83
2023/06/03 03:36:30;;;;;;;;;;;;;;;21.29;57.49;101033.34;5002176;28;20218;-84
2023/06/03 03:39:02;;;;;;;;;;;;;;;21.39;57.44;101031.16;5009703;28;19925;-84
2023/06/03 03:41:43;;;;;;;;;;;;;;;20.84;57.70;100965.28;4992060;28;19990;-84
2023/06/03 03:44:11;;;;;;;;;;;;;;;21.35;57.58;101037.94;5017996;28;19928;-85
2023/06/03 03:46:58;;;;;;;;;;;;;;;21.23;58.00;101048.44;5001444;28;20098;-84
2023/06/03 03:49:36;;;;;;;;;;;;;;;21.16;58.25;101054.81;5006979;28;19936;-84
2023/06/03 03:52:05;;;;;;;;;;;;;;;21.22;58.45;101049.50;5018102;28;20176;-84
2023/06/03 03:54:35;;;;;;;;;;;;;;;21.25;58.47;101043.69;4990276;28;19925;-83
2023/06/03 03:57:08;;;;;;;;;;;;;;;21.26;58.46;101044.53;5014179;28;20023;-84
2023/06/03 03:59:35;;;;;;;;;;;;;;;21.22;59.12;101045.97;5013555;28;20172;-83
2023/06/03 04:02:04;;;;;;;;;;;;;;;21.30;58.72;101051.22;4997126;28;20311;-83
2023/06/03 04:04:44;;;;;;;;;;;;;;;21.30;58.45;101048.50;4982899;28;20326;-84
2023/06/03 04:07:21;;;;;;;;;;;;;;;20.99;58.51;101009.22;4960398;28;20325;-83
2023/06/03 04:09:54;;;;;;;;;;;;;;;21.25;58.61;101056.38;5011478;28;20479;-83
2023/06/03 04:12:29;;;;;;;;;;;;;;;20.87;58.91;101011.59;5008745;28;20011;-84
2023/06/03 04:14:56;;;;;;;;;;;;;;;21.11;59.26;101063.50;5005534;28;19925;-84
2023/06/03 04:17:25;;;;;;;;;;;;;;;21.19;59.34;101070.63;4999126;28;20286;-84
2023/06/03 04:19:52;;;;;;;;;;;;;;;21.08;59.65;101067.44;5016746;28;20225;-84
2023/06/03 04:22:22;;;;;;;;;;;;;;;21.16;59.37;101065.63;5014534;28;19932;-84
2023/06/03 04:24:53;;;;;;;;;;;;;;;21.23;59.29;101074.63;5008148;28;19925;-84
2023/06/03 04:27:20;;;;;;;;;;;;;;;21.33;58.93;101075.09;5016152;28;19939;-84
2023/06/03 04:29:49;;;;;;;;;;;;;;;20.98;59.08;101021.06;5029744;28;20110;-84
2023/06/03 04:32:18;;;;;;;;;;;;;;;21.35;59.42;101081.16;5009202;28;20035;-84
2023/06/03 04:34:48;;;;;;;;;;;;;;;21.33;59.37;101084.03;5022408;28;19968;-84
2023/06/03 04:37:15;;;;;;;;;;;;;;;21.41;59.03;101080.41;5015729;28;19982;-84
2023/06/03 04:39:44;;;;;;;;;;;;;;;21.03;59.49;101028.56;5007381;28;19964;-84
2023/06/03 04:42:13;;;;;;;;;;;;;;;21.06;59.88;101033.56;4998527;28;20030;-84
2023/06/03 04:44:43;;;;;;;;;;;;;;;21.11;59.27;101037.34;5001429;28;20027;-84
2023/06/03 04:47:10;;;;;;;;;;;;;;;21.50;59.15;101078.38;5023653;28;19978;-83
2023/06/03 04:49:45;;;;;;;;;;;;;;;21.49;59.37;101082.97;5013528;28;20463;-84
2023/06/03 04:52:12;;;;;;;;;;;;;;;21.78;58.16;101086.47;5011229;28;19929;-84
2023/06/03 04:54:44;;;;;;;;;;;;;;;21.69;58.25;101087.66;5016466;28;19968;-83
2023/06/03 04:57:11;;;;;;;;;;;;;;;21.65;58.53;101086.38;5017427;28;20095;-84
2023/06/03 04:59:38;;;;;;;;;;;;;;;21.57;59.15;101086.53;5016198;28;20600;-84
2023/06/03 05:02:12;;;;;;;;;;;;;;;21.24;59.30;101035.78;4989345;28;20319;-83
2023/06/03 05:04:41;;;;;;;;;;;;;;;21.50;59.35;101081.09;5002633;28;19925;-84
2023/06/03 05:07:11;;;;;;;;;;;;;;;21.54;59.37;101090.47;5011403;28;19955;-84
2023/06/03 05:09:43;;;;;;;;;;;;;;;21.52;59.90;101087.97;5019369;28;20297;-84
2023/06/03 05:12:09;;;;;;;;;;;;;;;21.47;60.03;101095.81;4996129;28;20437;-85
2023/06/03 05:14:39;;;;;;;;;;;;;;;21.54;60.06;101091.31;5015418;28;19925;-84
2023/06/03 05:17:07;;;;;;;;;;;;;;;21.50;59.88;101103.53;5005528;28;19932;-84
2023/06/03 05:19:33;;;;;;;;;;;;;;;21.54;59.68;101107.50;4994441;28;20389;-83
2023/06/03 05:22:03;;;;;;;;;;;;;;;21.48;59.89;101108.31;5007987;28;20359;-84
2023/06/03 05:24:29;;;;;;;;;;;;;;;21.53;59.76;101105.84;5003255;28;20065;-84
2023/06/03 05:26:56;;;;;;;;;;;;;;;21.46;60.25;101102.25;4999037;28;19929;-84
2023/06/03 05:29:25;;;;;;;;;;;;;;;21.23;60.03;101059.25;4999045;28;20343;-83
2023/06/03 05:31:53;;;;;;;;;;;;;;;21.49;60.17;101104.56;5014659;28;19928;-84
2023/06/03 05:34:20;;;;;;;;;;;;;;;21.54;59.98;101110.22;5004764;28;19932;-83
2023/06/03 05:36:46;;;;;;;;;;;;;;;21.46;60.15;101113.06;5011729;28;19935;-84
2023/06/03 05:39:13;;;;;;;;;;;;;;;21.42;60.35;101103.69;5023803;28;19983;-84
2023/06/03 05:41:42;;;;;;;;;;;;;;;21.24;60.00;101062.78;4997375;28;19925;-84
2023/06/03 05:44:14;;;;;;;;;;;;;;;21.49;60.53;101115.38;4998715;28;19936;-85
2023/06/03 05:46:41;;;;;;;;;;;;;;;21.47;60.53;101112.03;5000175;28;19932;-84
2023/06/03 05:49:08;;;;;;;;;;;;;;;21.58;60.67;101112.50;5004150;28;19955;-84
2023/06/03 05:51:38;;;;;;;;;;;;;;;21.37;59.97;101071.00;5018126;28;20036;-83
2023/06/03 05:54:12;;;;;;;;;;;;;;;21.75;59.65;101108.50;5013034;28;19924;-83
2023/06/03 05:56:39;;;;;;;;;;;;;;;21.71;60.24;101116.16;5013902;28;19925;-84
2023/06/03 05:59:06;;;;;;;;;;;;;;;21.74;60.27;101123.03;5011916;28;20176;-85
2023/06/03 06:01:36;;;;;;;;;;;;;;;21.55;59.83;101074.09;5000171;28;19933;-84
2023/06/03 06:04:08;;;;;;;;;;;;;;;21.93;59.55;101125.03;4992435;28;19941;-84
2023/06/03 06:06:36;;;;;;;;;;;;;;;22.00;59.46;101132.34;4983933;28;19962;-83
2023/06/03 06:09:03;;;;;;;;;;;;;;;21.93;59.60;101138.53;4991508;28;20142;-83
2023/06/03 06:11:32;;;;;;;;;;;;;;;21.52;60.03;101071.75;4997352;28;19932;-83
2023/06/03 06:14:00;;;;;;;;;;;;;;;21.86;60.46;101132.25;4966778;28;20017;-83
2023/06/03 06:16:27;;;;;;;;;;;;;;;22.06;59.57;101142.34;4985402;28;19925;-84
2023/06/03 06:18:57;;;;;;;;;;;;;;;22.06;59.54;101142.34;4994041;28;20533;-84
2023/06/03 06:21:24;;;;;;;;;;;;;;;22.16;59.01;101140.13;4991485;28;19930;-84
2023/06/03 06:23:51;;;;;;;;;;;;;;;22.17;59.04;101139.09;4983250;28;20566;-84
2023/06/03 06:26:17;;;;;;;;;;;;;;;21.84;59.63;101110.00;5000078;28;20294;-84
2023/06/03 06:28:47;;;;;;;;;;;;;;;21.98;59.58;101144.19;4983900;28;19932;-83
2023/06/03 06:31:15;;;;;;;;;;;;;;;22.08;59.44;101140.28;5004967;28;19933;-84
2023/06/03 06:33:47;;;;;;;;;;;;;;;22.07;59.33;101142.16;5003555;28;20119;-84
2023/06/03 06:36:17;;;;;;;;;;;;;;;22.06;60.19;101147.75;4997872;28;19929;-83
2023/06/03 06:38:45;;;;;;;;;;;;;;;22.12;59.76;101142.41;4972537;28;20014;-84
2023/06/03 06:41:13;;;;;;;;;;;;;;;22.16;59.92;101148.22;5012308;28;19929;-83
2023/06/03 06:43:42;;;;;;;;;;;;;;;22.25;59.47;101146.25;4998029;28;19929;-84
2023/06/03 06:46:09;;;;;;;;;;;;;;;22.46;58.68;101158.84;5005105;28;20014;-85
2023/06/03 06:48:37;;;;;;;;;;;;;;;22.40;58.79;101141.53;4992247;28;20465;-84
2023/06/03 06:51:05;;;;;;;;;;;;;;;22.42;58.66;101141.34;4988255;28;20331;-84
2023/06/03 06:53:36;;;;;;;;;;;;;;;22.51;58.28;101140.13;4991205;28;19925;-83
2023/06/03 06:56:11;;;;;;;;;;;;;;;22.60;58.35;101144.34;5000554;28;19975;-84
2023/06/03 06:58:39;;;;;;;;;;;;;;;22.58;57.96;101149.09;4998667;28;19929;-84
2023/06/03 07:01:08;;;;;;;;;;;;;;;22.78;57.68;101152.69;5007364;28;19928;-85
2023/06/03 07:03:36;;;;;;;;;;;;;;;22.83;57.22;101152.91;5013653;28;20451;-85
2023/06/03 07:06:03;;;;;;;;;;;;;;;22.92;57.33;101158.16;5011149;28;20195;-84
2023/06/03 07:08:30;;;;;;;;;;;;;;;22.95;57.62;101160.47;4998041;28;19925;-85
2023/06/03 07:10:59;;;;;;;;;;;;;;;22.93;57.63;101160.66;5003534;28;19925;-84
2023/06/03 07:13:26;;;;;;;;;;;;;;;23.10;56.58;101161.13;5016763;28;19924;-84
2023/06/03 07:15:55;;;;;;;;;;;;;;;23.00;56.50;101161.53;5000937;28;19944;-82
2023/06/03 07:18:22;;;;;;;;;;;;;;;23.10;56.50;101166.56;5012990;28;19957;-81
2023/06/03 07:20:52;;;;;;;;;;;;;;;23.13;56.54;101160.75;5009411;28;19940;-82
2023/06/03 07:23:29;;;;;;;;;;;;;;;23.14;56.54;101151.56;5005401;28;19924;-82
2023/06/03 07:26:00;;;;;;;;;;;;;;;23.19;56.91;101159.91;5010652;28;20209;-82
2023/06/03 07:28:30;;;;;;;;;;;;;;;23.29;56.80;101158.69;5014233;28;19925;-80
2023/06/03 07:30:58;;;;;;;;;;;;;;;23.32;56.21;101161.78;5008847;28;19968;-81
2023/06/03 07:33:26;;;;;;;;;;;;;;;23.43;55.53;101166.59;5014140;28;19928;-83
2023/06/03 07:36:00;;;;;;;;;;;;;;;23.44;55.53;101156.59;5015681;28;20060;-81
2023/06/03 07:38:39;;;;;;;;;;;;;;;23.44;55.67;101157.41;5009414;28;20382;-82
2023/06/03 07:41:09;;;;;;;;;;;;;;;23.60;55.13;101156.19;5004773;28;19931;-83
2023/06/03 07:43:38;;;;;;;;;;;;;;;23.57;55.36;101163.88;5013025;28;19926;-82
2023/06/03 07:46:05;;;;;;;;;;;;;;;23.62;54.92;101162.22;5011637;28;19984;-83
2023/06/03 07:48:38;;;;;;;;;;;;;;;23.51;55.37;101168.28;5002804;28;19933;-83
2023/06/03 07:51:07;;;;;;;;;;;;;;;23.26;55.38;101116.59;4987277;28;20407;-82
2023/06/03 07:53:39;;;;;;;;;;;;;;;23.69;55.57;101159.53;4991461;28;19959;-84
2023/06/03 07:56:10;;;;;;;;;;;;;;;23.74;55.11;101164.31;4979143;28;19925;-86
2023/06/03 07:58:37;;;;;;;;;;;;;;;23.67;54.72;101157.00;4992870;28;20024;-86
2023/06/03 08:01:04;;;;;;;;;;;;;;;23.60;54.71;101161.59;5005428;28;19932;-85
2023/06/03 08:03:32;;;;;;;;;;;;;;;23.74;55.00;101158.91;5013238;28;19932;-86
2023/06/03 08:05:59;;;;;;;;;;;;;;;23.82;54.56;101156.00;5016007;28;19931;-86
2023/06/03 08:08:32;;;;;;;;;;;;;;;23.99;54.04;101153.66;4999049;28;19925;-86
2023/06/03 08:11:02;;;;;;;;;;;;;;;23.98;54.67;101155.56;5005693;28;19958;-86
2023/06/03 08:13:30;;;;;;;;;;;;;;;23.81;54.70;101108.22;4988236;28;20356;-83
2023/06/03 08:15:58;;;;;;;;;;;;;;;24.10;53.88;101158.44;5001094;28;19925;-82
2023/06/03 08:18:43;;;;;;;;;;;;;;;24.26;53.50;101155.25;4983428;28;19931;-82
2023/06/03 08:21:10;;;;;;;;;;;;;;;24.36;53.07;101159.41;4988531;28;19933;-82
2023/06/03 08:23:37;;;;;;;;;;;;;;;24.35;53.58;101152.31;4991733;28;20004;-82
2023/06/03 08:26:04;;;;;;;;;;;;;;;24.42;53.56;101159.38;4995564;28;20388;-82
2023/06/03 08:28:30;;;;;;;;;;;;;;;24.48;52.32;101163.97;5024376;28;19929;-82
2023/06/03 08:30:58;;;;;;;;;;;;;;;24.51;52.55;101160.81;5009687;28;19976;-81
2023/06/03 08:33:25;;;;;;;;;;;;;;;24.43;52.05;101165.66;5027220;28;20051;-81
2023/06/03 08:35:55;;;;;;;;;;;;;;;24.51;51.99;101160.81;5015636;28;19935;-83
2023/06/03 08:38:22;;;;;;;;;;;;;;;24.55;52.28;101168.56;4997129;28;19935;-84
2023/06/03 08:40:50;;;;;;;;;;;;;;;24.86;51.50;101170.50;5004394;28;19935;-84
2023/06/03 08:43:17;;;;;;;;;;;;;;;24.93;51.25;101161.25;5009065;28;19929;-81
2023/06/03 08:46:03;;;;;;;;;;;;;;;25.04;51.16;101157.00;5013824;28;19929;-83
2023/06/03 08:48:50;;;;;;;;;;;;;;;25.11;50.85;101162.41;5000994;28;19978;-82
2023/06/03 08:51:19;;;;;;;;;;;;;;;25.10;49.77;101111.84;5012483;28;19929;-83
2023/06/03 08:53:52;;;;;;;;;;;;;;;25.45;49.38;101157.59;5000529;28;19925;-86
2023/06/03 08:56:19;;;;;;;;;;;;;;;25.40;49.63;101154.72;4998997;28;20118;-86
2023/06/03 08:58:57;;;;;;;;;;;;;;;25.34;50.17;101162.69;4998010;28;19925;-87
2023/06/03 09:01:29;;;;;;;;;;;;;;;25.49;50.11;101158.81;5015530;28;20087;-86
2023/06/03 09:03:56;;;;;;;;;;;;;;;25.57;49.88;101153.09;5014482;28;20422;-86
2023/06/03 09:06:23;;;;;;;;;;;;;;;25.62;49.76;101161.41;5012860;28;20341;-85
2023/06/03 09:08:53;;;;;;;;;;;;;;;25.78;50.15;101158.13;5002304;28;20401;-87
2023/06/03 09:11:25;;;;;;;;;;;;;;;25.65;49.41;101157.41;5000281;28;19936;-86
2023/06/03 09:13:55;;;;;;;;;;;;;;;25.30;49.71;101115.28;4989416;28;20170;-87
2023/06/03 09:16:26;;;;;;;;;;;;;;;25.66;49.98;101165.38;5006495;28;20223;-86
2023/06/03 09:18:53;;;;;;;;;;;;;;;25.72;49.50;101164.44;5014797;28;19928;-86
2023/06/03 09:21:20;;;;;;;;;;;;;;;25.79;49.35;101164.41;5022807;28;20322;-86
2023/06/03 09:23:51;;;;;;;;;;;;;;;25.93;49.70;101165.16;5012814;28;20341;-86
2023/06/03 09:26:21;;;;;;;;;;;;;;;25.76;48.65;101121.34;4989649;28;20108;-85
2023/06/03 09:28:48;;;;;;;;;;;;;;;25.82;49.22;101163.94;5001938;28;20070;-87
2023/06/03 09:31:15;;;;;;;;;;;;;;;25.75;49.23;101168.63;4977184;28;19925;-86
2023/06/03 09:33:42;;;;;;;;;;;;;;;25.84;49.55;101158.28;4987354;28;20051;-85
2023/06/03 09:36:18;;;;;;;;;;;;;;;25.89;49.14;101158.47;5021371;28;19925;-85
2023/06/03 09:38:47;;;;;;;;;;;;;;;25.97;49.19;101156.31;5004498;28;20434;-86
2023/06/03 09:41:26;;;;;;;;;;;;;;;26.15;49.36;101150.03;5018546;28;19972;-85
2023/06/03 09:44:21;;;;;;;;;;;;;;;26.32;49.07;101152.97;5017905;28;20319;-86
2023/06/03 09:46:53;;;;;;;;;;;;;;;26.50;48.54;101160.28;5023626;28;19925;-86
2023/06/03 09:49:21;;;;;;;;;;;;;;;26.58;48.42;101161.91;5025940;28;19974;-86
2023/06/03 09:52:09;;;;;;;;;;;;;;;26.51;48.11;101161.97;5026915;28;19928;-85
2023/06/03 09:54:37;;;;;;;;;;;;;;;26.49;48.16;101158.66;5019874;28;20192;-83
2023/06/03 09:57:11;;;;;;;;;;;;;;;26.39;48.07;101156.47;5015688;28;19924;-85
2023/06/03 09:59:43;;;;;;;;;;;;;;;26.58;47.34;101151.88;5006053;28;20329;-86
2023/06/03 10:02:11;;;;;;;;;;;;;;;26.75;48.16;101151.19;5031419;28;20152;-86
2023/06/03 10:04:41;;;;;;;;;;;;;;;26.87;48.34;101154.84;5013583;28;20290;-83
2023/06/03 10:07:08;;;;;;;;;;;;;;;26.82;48.46;101151.94;4990236;28;19971;-86
2023/06/03 10:09:35;;;;;;;;;;;;;;;26.93;47.45;101145.72;5001150;28;19925;-85
2023/06/03 10:12:02;;;;;;;;;;;;;;;26.93;48.81;101142.16;5005157;28;19925;-86
2023/06/03 10:14:31;;;;;;;;;;;;;;;26.97;48.44;101143.38;4999849;28;21299;-86
2023/06/03 10:17:03;;;;;;;;;;;;;;;26.86;49.15;101143.09;4999936;28;20169;-76
2023/06/03 10:19:33;;;;;;;;;;;;;;;26.68;48.53;101140.44;5001502;28;20047;-85
2023/06/03 10:22:03;;;;;;;;;;;;;;;26.73;49.44;101147.91;4984027;28;19968;-84
2023/06/03 10:24:37;;;;;;;;;;;;;;;26.84;49.00;101149.81;5010047;28;19933;-85
2023/06/03 10:27:04;;;;;;;;;;;;;;;27.00;48.84;101143.72;5020461;28;20019;-85
2023/06/03 10:29:32;;;;;;;;;;;;;;;27.15;47.97;101145.19;5010758;28;19929;-84
2023/06/03 10:32:04;;;;;;;;;;;;;;;27.39;47.49;101143.38;5021925;28;20341;-84
2023/06/03 10:34:34;;;;;;;;;;;;;;;27.64;46.72;101135.78;5010850;28;19928;-84
2023/06/03 10:37:03;;;;;;;;;;;;;;;27.88;46.35;101136.66;5004981;28;20348;-86
2023/06/03 10:39:31;;;;;;;;;;;;;;;27.65;46.83;101102.00;4995215;28;20020;-86
2023/06/03 10:42:03;;;;;;;;;;;;;;;27.82;46.37;101091.25;5000262;28;19924;-82
2023/06/03 10:44:36;;;;;;;;;;;;;;;28.24;46.22;101131.97;5021811;28;20203;-84
2023/06/03 10:47:15;;;;;;;;;;;;;;;28.29;46.53;101134.78;5008635;28;19925;-85
2023/06/03 10:49:42;;;;;;;;;;;;;;;28.32;46.01;101139.75;5018586;28;20673;-83
2023/06/03 10:52:08;;;;;;;;;;;;;;;28.38;45.63;101142.63;5005006;28;19932;-86
2023/06/03 10:54:56;;;;;;;;;;;;;;;28.19;45.39;101088.19;5014444;28;19968;-84
2023/06/03 10:57:25;;;;;;;;;;;;;;;28.47;45.44;101133.84;4993323;28;20051;-85
2023/06/03 10:59:52;;;;;;;;;;;;;;;28.67;45.23;101141.59;5015905;28;19964;-84
2023/06/03 11:02:21;;;;;;;;;;;;;;;28.81;44.50;101130.34;5013067;28;19925;-86
2023/06/03 11:05:10;;;;;;;;;;;;;;;29.03;43.95;101116.81;5005705;28;19925;-85
2023/06/03 11:07:40;;;;;;;;;;;;;;;29.51;43.30;101119.00;4995300;28;19925;-85
2023/06/03 11:10:25;;;;;;;;;;;;;;;29.66;43.02;101109.38;4985818;28;19928;-85
2023/06/03 11:12:52;;;;;;;;;;;;;;;29.58;43.06;101108.72;4976153;28;20302;-85
2023/06/03 11:15:19;;;;;;;;;;;;;;;29.80;43.49;101116.19;4967290;28;20268;-84
2023/06/03 11:18:05;;;;;;;;;;;;;;;30.22;42.94;101101.94;4990391;28;20150;-85
2023/06/03 11:20:38;;;;;;;;;;;;;;;30.10;42.83;101104.81;5014119;28;19925;-85
2023/06/03 11:23:08;;;;;;;;;;;;;;;29.87;43.30;101067.56;5006148;28;20303;-83
2023/06/03 11:25:39;;;;;;;;;;;;;;;30.22;42.66;101102.78;5002799;28;20188;-85
2023/06/03 11:28:24;;;;;;;;;;;;;;;30.30;41.91;101098.78;4992968;28;19929;-85
2023/06/03 11:30:53;;;;;;;;;;;;;;;30.33;41.92;101087.31;5023195;28;19936;-84
2023/06/03 11:33:19;;;;;;;;;;;;;;;30.39;41.34;101086.31;4993348;28;19932;-84
2023/06/03 11:35:57;;;;;;;;;;;;;;;30.27;41.49;101050.03;5022133;28;20300;-84
2023/06/03 11:38:43;;;;;;;;;;;;;;;30.54;41.06;101087.56;5021788;28;20349;-83
2023/06/03 11:41:11;;;;;;;;;;;;;;;30.58;40.32;101085.94;5023268;28;20119;-84
2023/06/03 11:43:57;;;;;;;;;;;;;;;30.77;40.52;101081.75;5022893;28;20346;-84
2023/06/03 11:46:24;;;;;;;;;;;;;;;30.90;39.71;101068.72;5019720;28;20526;-84
2023/06/03 11:48:51;;;;;;;;;;;;;;;30.96;40.26;101073.19;5005844;28;20429;-84
2023/06/03 11:51:24;;;;;;;;;;;;;;;30.94;39.87;101072.59;5016812;28;20014;-84
2023/06/03 11:53:58;;;;;;;;;;;;;;;30.71;40.71;101074.56;5019876;28;19979;-84
2023/06/03 11:56:29;;;;;;;;;;;;;;;30.54;41.31;101066.47;5017745;28;19925;-84
2023/06/03 11:58:56;;;;;;;;;;;;;;;30.47;41.01;101062.28;5011772;28;19935;-84
2023/06/03 12:01:23;;;;;;;;;;;;;;;30.49;41.14;101058.19;5022426;28;20198;-84
2023/06/03 12:03:58;;;;;;;;;;;;;;;30.49;40.48;101046.38;5017360;28;19925;-85
2023/06/03 12:06:25;;;;;;;;;;;;;;;30.79;40.42;101045.88;5032732;28;19943;-85
2023/06/03 12:08:52;;;;;;;;;;;;;;;31.04;40.04;101043.34;5002128;28;19975;-84
2023/06/03 12:11:32;;;;;;;;;;;;;;;31.27;39.24;101046.81;5013619;28;19924;-85
2023/06/03 12:13:58;;;;;;;;;;;;;;;31.38;39.88;101045.78;5021659;28;20035;-84
2023/06/03 12:16:33;;;;;;;;;;;;;;;31.06;39.74;101001.97;4981139;28;20710;-87
2023/06/03 12:19:07;;;;;;;;;;;;;;;31.22;39.88;101036.63;4946750;28;20532;-84
2023/06/03 12:21:41;;;;;;;;;;;;;;;30.88;39.97;101039.66;4954445;28;19932;-85
2023/06/03 12:24:13;;;;;;;;;;;;;;;30.50;40.96;101034.34;4951530;28;20361;-84
2023/06/03 12:26:50;;;;;;;;;;;;;;;29.72;41.04;100956.00;4958409;28;20366;-84
2023/06/03 12:29:24;;;;;;;;;;;;;;;30.00;41.37;101028.03;4967945;28;19925;-85
2023/06/03 12:32:02;;;;;;;;;;;;;;;29.97;41.48;101028.53;4958655;28;20219;-84
2023/06/03 12:34:36;;;;;;;;;;;;;;;29.93;41.33;101021.91;4957710;28;20020;-84
2023/06/03 12:37:14;;;;;;;;;;;;;;;29.75;41.15;101009.41;4989095;28;19925;-85
2023/06/03 12:39:48;;;;;;;;;;;;;;;29.79;41.89;101010.56;4962043;28;20028;-85
2023/06/03 12:42:33;;;;;;;;;;;;;;;29.85;41.74;101005.97;4949174;28;19933;-85
2023/06/03 12:45:01;;;;;;;;;;;;;;;30.04;41.64;101005.38;4972213;28;19978;-84
2023/06/03 12:47:46;;;;;;;;;;;;;;;30.19;41.25;100999.22;4972612;28;20039;-85
2023/06/03 12:50:22;;;;;;;;;;;;;;;30.17;41.05;101000.56;4979508;28;20248;-85
2023/06/03 12:52:56;;;;;;;;;;;;;;;30.34;41.23;101005.97;4971477;28;19939;-84